Time;durP1;ratioP1;P1;durP2;ratioP2;P2;SDS_P1;SDS_P2;PMS_P1;PMS_P2;Temp;Humidity;BMP_temperature;BMP_pressure;BME280_temperature;BME280_humidity;BME280_pressure;Samples;Min_cycle;Max_cycle;Signal;HPM_P1;HPM_P2
2020/12/16 00:08:37;;;;;;;;;;;5.10;99.90;;;4.04;88.96;95730.09;10025893;29;1911;-82
2020/12/16 00:30:28;;;;;;;;;;;5.00;99.90;;;3.89;88.87;95764.34;10419017;28;1937;-82
2020/12/16 00:35:41;;;;;;;;;;;6.40;99.90;;;3.80;88.88;95766.53;10426060;28;1726;-81
2020/12/16 00:46:42;;;;;;;;;;;4.80;99.90;;;3.65;89.46;95769.66;10298551;28;1939;-82
2020/12/16 00:57:35;;;;;;;;;;;4.80;99.90;;;3.43;90.08;95755.28;10297177;28;1882;-81
2020/12/16 01:08:40;;;;;;;;;;;5.40;99.90;;;3.28;90.55;95742.44;10231501;28;2007;-83
2020/12/16 01:36:56;;;;;;;;;;;4.10;99.90;;;3.08;90.72;95732.13;10425062;28;1740;-81
2020/12/16 01:42:38;;;;;;;;;;;5.10;99.90;;;3.01;91.07;95747.34;10399900;28;1814;-82
2020/12/16 01:54:06;;;;;;;;;;;4.10;99.90;;;2.87;91.28;95745.94;10276454;28;1929;-82
2020/12/16 01:59:35;;;;;;;;;;;5.40;99.90;;;2.79;91.66;95748.88;10274882;28;1544;-81
2020/12/16 02:04:43;;;;;;;;;;;5.20;99.90;;;2.73;91.69;95739.97;10288641;28;1793;-81
2020/12/16 02:15:21;;;;;;;;;;;5.30;99.90;;;2.62;91.48;95736.25;10282927;28;1905;-82
2020/12/16 02:21:09;;;;;;;;;;;3.70;99.90;;;2.52;92.14;95733.31;10283271;28;2087;-81
2020/12/16 02:26:24;;;;;;;;;;;5.00;99.90;;;2.53;91.96;95747.38;10414548;28;1999;-82
2020/12/16 02:31:27;;;;;;;;;;;3.80;99.90;;;2.46;92.68;95744.81;10410143;28;2052;-82
2020/12/16 02:36:55;;;;;;;;;;;;;;;;;;;;;
2020/12/16 03:27:26;;;;;;;;;;;3.00;99.90;;;1.65;94.25;95734.50;10207855;28;2119;-81
2020/12/16 03:33:02;;;;;;;;;;;2.70;99.90;;;1.49;94.22;95728.72;10339737;28;2019;-81
2020/12/16 03:43:53;;;;;;;;;;;2.70;99.90;;;1.21;95.48;95745.06;10200254;29;1992;-79
2020/12/16 03:49:14;;;;;;;;;;;2.30;99.90;;;1.20;95.56;95746.06;10227032;29;2136;-82
2020/12/16 04:00:26;;;;;;;;;;;2.40;99.90;;;1.26;95.59;95765.59;10302394;28;1957;-82
2020/12/16 04:05:48;;;;;;;;;;;2.40;99.90;;;1.30;95.60;95772.09;10318992;28;2088;-81
2020/12/16 04:28:24;;;;;;;;;;;2.50;99.90;;;1.43;94.62;95784.41;10317439;28;2094;-82
2020/12/16 04:39:33;;;;;;;;;;;4.20;99.90;;;1.40;94.16;95790.13;10252464;28;1713;-83
2020/12/16 04:44:48;;;;;;;;;;;4.10;99.90;;;1.37;93.85;95793.22;10306371;28;2285;-83
2020/12/16 04:50:25;;;;;;;;;;;;;;;;;;;;;
2020/12/16 04:55:47;;;;;;;;;;;3.90;99.90;;;1.40;93.90;95798.91;10337075;28;1892;-83
2020/12/16 05:01:02;;;;;;;;;;;3.60;99.90;;;1.28;94.10;95817.31;10436088;28;2102;-82
2020/12/16 05:12:09;;;;;;;;;;;;;;;;;;;;;
2020/12/16 05:23:14;;;;;;;;;;;4.30;99.90;;;1.46;93.44;95813.09;10398577;28;2025;-83
2020/12/16 05:39:56;;;;;;;;;;;2.30;99.90;;;1.23;94.53;95832.22;10423730;28;1809;-82
2020/12/16 05:45:07;;;;;;;;;;;3.20;99.90;;;1.36;94.15;95829.50;10426232;28;2073;-82
2020/12/16 06:01:58;;;;;;;;;;;3.20;99.90;;;1.28;93.64;95821.81;10403696;28;2076;-81
2020/12/16 06:13:00;;;;;;;;;;;4.20;99.90;;;1.31;93.20;95826.66;10336423;28;2050;-82
2020/12/16 06:18:39;;;;;;;;;;;2.40;99.90;;;1.26;93.32;95818.53;10372644;28;2181;-82
2020/12/16 06:23:57;;;;;;;;;;;2.20;99.90;;;1.07;93.70;95823.75;10412375;28;1956;-81
2020/12/16 06:57:58;;;;;;;;;;;3.30;99.90;;;1.38;93.87;95851.25;10330880;28;2166;-82
2020/12/16 07:08:50;;;;;;;;;;;2.40;99.90;;;1.36;93.78;95855.97;10364337;28;2026;-81
2020/12/16 07:13:58;;;;;;;;;;;3.40;99.90;;;1.29;93.85;95855.22;10436759;28;2050;-80
2020/12/16 07:19:08;;;;;;;;;;;2.40;99.90;;;1.22;93.91;95860.53;10430266;28;1878;-84
2020/12/16 07:24:10;;;;;;;;;;;2.20;99.90;;;1.28;93.83;95874.78;10449838;28;2229;-82
2020/12/16 07:40:26;;;;;;;;;;;3.10;99.90;;;1.33;93.38;95890.81;10449773;28;2039;-84
2020/12/16 07:51:45;;;;;;;;;;;2.40;99.90;;;1.48;94.35;95903.78;10306275;28;2070;-83
2020/12/16 07:57:02;;;;;;;;;;;2.40;99.90;;;1.56;94.14;95922.88;10300598;28;2060;-83
2020/12/16 08:02:04;;;;;;;;;;;2.60;99.90;;;1.78;93.84;95925.19;10291192;28;2088;-82
2020/12/16 08:07:06;;;;;;;;;;;2.80;99.90;;;1.98;92.95;95930.38;10294657;28;2082;-84
2020/12/16 08:12:07;;;;;;;;;;;3.00;99.90;;;2.01;91.81;95930.72;10304901;28;2067;-83
2020/12/16 08:17:09;;;;;;;;;;;4.80;99.90;;;2.35;90.91;95942.69;10328410;28;1937;-83
2020/12/16 08:22:12;;;;;;;;;;;3.30;99.90;;;2.63;89.36;95941.41;10314098;28;2132;-81
2020/12/16 08:27:13;;;;;;;;;;;3.60;99.90;;;2.96;87.72;95941.06;10390473;28;2007;-83
2020/12/16 08:32:15;;;;;;;;;;;3.80;99.90;;;3.32;86.11;95956.19;10443909;28;1945;-84
2020/12/16 08:37:17;;;;;;;;;;;4.70;99.90;;;3.71;84.02;95960.16;10462988;28;1702;-81
2020/12/16 08:42:18;;;;;;;;;;;4.50;99.90;;;3.73;84.61;95955.41;10459279;28;2150;-83
2020/12/16 08:47:20;;;;;;;;;;;4.70;99.90;;;4.48;82.66;95964.72;10446359;28;1887;-83
2020/12/16 08:52:22;;;;;;;;;;;5.90;99.90;;;4.89;80.42;95958.47;10441377;28;2024;-83
2020/12/16 08:57:24;;;;;;;;;;;6.30;99.90;;;5.38;78.68;95953.63;10448556;28;2032;-81
2020/12/16 09:02:25;;;;;;;;;;;5.90;99.90;;;5.90;77.30;95941.00;10450193;28;1989;-83
2020/12/16 09:07:27;;;;;;;;;;;7.90;99.90;;;5.93;75.93;95945.13;10437965;28;1965;-84
2020/12/16 09:12:29;;;;;;;;;;;6.70;99.90;;;6.43;74.91;95939.81;10436196;28;2088;-82
2020/12/16 09:17:31;;;;;;;;;;;7.00;99.90;;;6.48;72.52;95939.88;10455664;28;1999;-85
2020/12/16 09:22:35;;;;;;;;;;;7.30;99.90;;;6.10;73.65;95950.47;10464780;28;1804;-86
2020/12/16 09:27:40;;;;;;;;;;;8.40;99.90;;;6.13;73.61;95945.47;10442008;28;1894;-87
2020/12/16 09:33:16;;;;;;;;;;;8.10;99.90;;;5.93;74.31;95956.59;10458199;28;1233;-85
2020/12/16 09:38:24;;;;;;;;;;;7.10;99.90;;;6.25;73.43;95952.59;10433476;28;1364;-82
2020/12/16 09:43:31;;;;;;;;;;;7.10;99.90;;;6.28;73.15;95950.22;10439863;28;1932;-82
2020/12/16 09:54:32;;;;;;;;;;;8.10;99.90;;;6.54;71.19;95948.78;10405737;28;1542;-83
2020/12/16 10:05:03;;;;;;;;;;;7.40;99.90;;;6.61;70.78;95943.28;10433411;28;1778;-83
2020/12/16 10:10:27;;;;;;;;;;;7.40;99.90;;;6.50;71.54;95940.47;10456167;28;1883;-81
2020/12/16 10:15:29;;;;;;;;;;;7.50;99.90;;;6.58;71.39;95949.13;10447657;28;2029;-83
2020/12/16 10:20:30;;;;;;;;;;;8.40;99.90;;;6.78;70.71;95944.88;10441198;28;2323;-82
2020/12/16 10:25:32;;;;;;;;;;;8.80;99.90;;;6.87;69.60;95939.09;10440871;28;1850;-83
2020/12/16 10:30:34;;;;;;;;;;;9.30;99.90;;;6.85;70.52;95944.69;10443034;28;2261;-81
2020/12/16 10:35:35;;;;;;;;;;;8.60;99.90;;;6.67;72.68;95950.31;10441055;28;2070;-82
2020/12/16 10:40:37;;;;;;;;;;;7.70;99.90;;;6.37;74.14;95948.00;10438480;28;2019;-81
2020/12/16 10:45:39;;;;;;;;;;;7.60;99.90;;;6.60;74.18;95947.81;10442206;28;2003;-81
2020/12/16 10:50:41;;;;;;;;;;;7.60;99.90;;;6.63;73.82;95950.00;10439105;28;2402;-82
2020/12/16 10:55:42;;;;;;;;;;;7.60;99.90;;;6.59;73.56;95948.88;10449364;28;2217;-82
2020/12/16 11:00:44;;;;;;;;;;;7.60;99.90;;;6.54;72.88;95950.66;10442898;28;1788;-82
2020/12/16 11:05:46;;;;;;;;;;;7.70;99.90;;;6.64;72.26;95943.59;10443690;28;1883;-82
2020/12/16 11:10:47;;;;;;;;;;;7.70;99.90;;;6.58;72.94;95941.91;10452635;28;1883;-83
2020/12/16 11:15:49;;;;;;;;;;;7.70;99.90;;;6.60;73.07;95953.16;10435895;28;1927;-82
2020/12/16 11:20:51;;;;;;;;;;;7.70;99.90;;;6.67;72.99;95944.97;10432260;28;1976;-84
2020/12/16 11:25:53;;;;;;;;;;;7.70;99.90;;;6.82;72.46;95936.38;10430225;28;1784;-83
2020/12/16 11:30:54;;;;;;;;;;;7.90;99.90;;;7.19;71.58;95933.91;10426608;28;1981;-82
2020/12/16 11:35:56;;;;;;;;;;;8.80;99.90;;;7.11;71.44;95934.34;10419990;28;2004;-81
2020/12/16 11:40:58;;;;;;;;;;;8.20;99.90;;;7.18;71.40;95934.97;10440851;28;2064;-82
2020/12/16 11:46:00;;;;;;;;;;;8.20;99.90;;;7.39;69.90;95931.53;10429906;28;2012;-82
2020/12/16 11:51:02;;;;;;;;;;;8.30;99.90;;;7.27;70.39;95930.84;10428730;28;2257;-81
2020/12/16 11:56:14;;;;;;;;;;;8.70;99.90;;;7.59;70.21;95933.63;10445959;28;2123;-82
2020/12/16 12:01:16;;;;;;;;;;;8.50;99.90;;;7.65;68.41;95931.81;10469965;28;1692;-83
2020/12/16 12:06:18;;;;;;;;;;;8.60;99.90;;;7.46;69.95;95934.81;10443627;28;1943;-82
2020/12/16 12:11:20;;;;;;;;;;;8.50;99.90;;;7.16;70.68;95931.75;10439143;28;2346;-83
2020/12/16 12:16:22;;;;;;;;;;;8.30;99.90;;;6.81;74.40;95932.06;10439774;28;1903;-81
2020/12/16 12:21:25;;;;;;;;;;;9.40;99.90;;;6.66;75.01;95919.31;10439461;28;1926;-80
2020/12/16 12:26:27;;;;;;;;;;;9.00;99.90;;;6.39;76.25;95929.84;10440388;28;1948;-83
2020/12/16 12:31:29;;;;;;;;;;;8.40;99.90;;;6.31;76.86;95924.94;10434117;28;2098;-83
2020/12/16 12:36:31;;;;;;;;;;;7.90;99.90;;;6.14;77.31;95927.59;10427805;28;1936;-84
2020/12/16 12:41:33;;;;;;;;;;;7.20;99.90;;;6.01;76.73;95928.69;10424427;28;1856;-83
2020/12/16 12:46:35;;;;;;;;;;;7.10;99.90;;;5.82;77.70;95935.28;10418275;28;2043;-83
2020/12/16 12:51:37;;;;;;;;;;;7.10;99.90;;;5.73;78.19;95937.53;10414242;28;2009;-83
2020/12/16 12:56:38;;;;;;;;;;;6.90;99.90;;;5.30;79.31;95935.34;10413631;28;1632;-83
2020/12/16 13:01:40;;;;;;;;;;;7.30;99.90;;;5.14;80.05;95928.88;10412277;28;2020;-83
2020/12/16 13:06:42;;;;;;;;;;;6.30;99.90;;;4.94;81.32;95931.13;10421503;28;2054;-82
2020/12/16 13:11:43;;;;;;;;;;;6.10;99.90;;;4.71;81.74;95922.13;10423639;28;2000;-80
2020/12/16 13:16:45;;;;;;;;;;;6.80;99.90;;;4.56;82.46;95932.44;10422724;28;2040;-81
2020/12/16 13:21:47;;;;;;;;;;;5.80;99.90;;;4.51;82.93;95921.66;10425905;28;1782;-83
2020/12/16 13:26:48;;;;;;;;;;;5.60;99.90;;;4.34;83.55;95917.03;10455550;28;1595;-82
2020/12/16 13:31:50;;;;;;;;;;;5.50;99.90;;;4.26;83.92;95913.91;10432504;28;1895;-82
2020/12/16 13:36:52;;;;;;;;;;;5.50;99.90;;;4.09;84.86;95929.75;10434442;28;1597;-82
2020/12/16 13:41:53;;;;;;;;;;;5.30;99.90;;;3.96;85.17;95919.31;10428985;28;1904;-82
2020/12/16 13:46:55;;;;;;;;;;;5.10;99.90;;;3.95;85.21;95907.84;10427596;28;2045;-82
2020/12/16 13:51:59;;;;;;;;;;;5.10;99.90;;;3.96;85.67;95908.66;10420381;28;1917;-83
2020/12/16 13:57:02;;;;;;;;;;;5.70;99.90;;;3.95;85.97;95909.72;10419583;28;2010;-81
2020/12/16 14:02:04;;;;;;;;;;;5.60;99.90;;;3.96;85.89;95909.47;10440855;28;2228;-83
2020/12/16 14:07:06;;;;;;;;;;;5.90;99.90;;;3.99;85.94;95910.84;10422009;28;1997;-81
2020/12/16 14:12:07;;;;;;;;;;;5.40;99.90;;;4.15;85.59;95902.22;10425529;28;1872;-83
2020/12/16 14:17:09;;;;;;;;;;;5.20;99.90;;;4.01;85.67;95900.81;10425244;28;1688;-83
2020/12/16 14:22:11;;;;;;;;;;;6.80;99.90;;;4.02;85.61;95897.13;10424926;28;1566;-82
2020/12/16 14:27:13;;;;;;;;;;;6.70;99.90;;;3.99;85.95;95894.91;10433229;28;1995;-82
2020/12/16 14:32:15;;;;;;;;;;;5.10;99.90;;;3.97;85.87;95894.31;10423441;28;1976;-83
2020/12/16 14:37:16;;;;;;;;;;;5.30;99.90;;;4.09;85.84;95903.13;10412539;28;1996;-85
2020/12/16 14:42:18;;;;;;;;;;;5.10;99.90;;;4.15;85.54;95902.22;10417599;28;1993;-84
2020/12/16 14:47:20;;;;;;;;;;;5.20;99.90;;;4.04;85.58;95895.84;10419713;28;1993;-83
2020/12/16 14:52:22;;;;;;;;;;;5.20;99.90;;;3.91;86.64;95887.25;10409311;28;1826;-82
2020/12/16 14:57:24;;;;;;;;;;;5.10;99.90;;;3.77;87.39;95882.16;10407214;28;1713;-82
2020/12/16 15:02:25;;;;;;;;;;;5.10;99.90;;;3.65;88.41;95889.28;10421404;28;1991;-82
2020/12/16 15:07:27;;;;;;;;;;;6.20;99.90;;;3.61;88.88;95898.72;10424176;28;1996;-82
2020/12/16 15:12:29;;;;;;;;;;;5.70;99.90;;;3.53;89.01;95896.41;10421956;28;1693;-82
2020/12/16 15:17:31;;;;;;;;;;;4.60;99.90;;;3.39;89.64;95890.47;10416033;28;1869;-83
2020/12/16 15:22:32;;;;;;;;;;;4.50;99.90;;;3.24;90.72;95896.19;10425133;28;1896;-83
2020/12/16 15:27:34;;;;;;;;;;;4.40;99.90;;;3.06;91.33;95896.22;10428775;28;1886;-83
2020/12/16 15:32:37;;;;;;;;;;;5.10;99.90;;;2.91;91.91;95899.22;10429122;28;1952;-82
2020/12/16 15:37:38;;;;;;;;;;;5.40;99.90;;;2.78;92.66;95901.22;10435681;28;1892;-83
2020/12/16 15:42:40;;;;;;;;;;;4.00;99.90;;;2.81;92.88;95914.09;10415396;28;1662;-81
2020/12/16 15:47:42;;;;;;;;;;;4.90;99.90;;;2.83;92.63;95914.66;10421795;28;1995;-83
2020/12/16 15:52:45;;;;;;;;;;;4.30;99.90;;;2.80;93.08;95915.09;10425909;28;1749;-82
2020/12/16 15:57:47;;;;;;;;;;;4.50;99.90;;;2.89;92.45;95929.72;10429343;28;2235;-82
2020/12/16 16:02:52;;;;;;;;;;;6.10;99.90;;;2.85;92.82;95917.91;10432167;28;1998;-86
2020/12/16 16:07:58;;;;;;;;;;;3.90;99.90;;;2.80;92.95;95917.75;10446566;28;1987;-85
2020/12/16 16:13:00;;;;;;;;;;;5.30;99.90;;;2.70;93.20;95920.94;10433796;28;1658;-84
2020/12/16 16:18:04;;;;;;;;;;;3.70;99.90;;;2.46;93.42;95927.88;10430837;28;2040;-83
2020/12/16 16:23:06;;;;;;;;;;;4.30;99.90;;;2.16;94.83;95931.22;10440908;28;1723;-84
2020/12/16 16:28:28;;;;;;;;;;;3.50;99.90;;;2.17;95.24;95930.19;10446320;28;1914;-84
2020/12/16 16:33:31;;;;;;;;;;;3.20;99.90;;;2.07;95.59;95932.50;10457691;28;2007;-82
2020/12/16 16:38:36;;;;;;;;;;;3.10;99.90;;;2.14;95.32;95935.91;10446476;28;1598;-81
2020/12/16 16:49:13;;;;;;;;;;;4.60;99.90;;;2.10;95.19;95953.31;10421990;28;2315;-83
2020/12/16 16:54:15;;;;;;;;;;;3.20;99.90;;;1.98;94.93;95944.44;10439406;28;1953;-80
2020/12/16 16:59:29;;;;;;;;;;;3.10;99.90;;;1.94;95.14;95950.38;10437414;28;1822;-81
2020/12/16 17:04:51;;;;;;;;;;;2.90;99.90;;;1.99;94.64;95955.84;10445942;28;1960;-81
2020/12/16 17:15:57;;;;;;;;;;;4.30;99.90;;;1.99;94.98;95950.53;10445627;28;1876;-82
2020/12/16 17:26:38;;;;;;;;;;;4.20;99.90;;;2.05;94.90;95955.78;10446356;28;1937;-81
2020/12/16 17:31:47;;;;;;;;;;;4.20;99.90;;;2.15;95.01;95966.72;10426504;28;1943;-82
2020/12/16 17:36:49;;;;;;;;;;;3.20;99.90;;;2.34;94.05;95980.03;10407366;28;2144;-82
2020/12/16 17:41:51;;;;;;;;;;;3.30;99.90;;;2.45;93.64;95992.59;10411764;28;1818;-82
2020/12/16 17:46:55;;;;;;;;;;;3.40;99.90;;;2.32;92.48;96004.13;10405423;28;1783;-84
2020/12/16 17:51:57;;;;;;;;;;;3.60;99.90;;;2.32;92.48;96003.31;10406713;28;1895;-83
2020/12/16 17:56:59;;;;;;;;;;;3.70;99.90;;;2.22;93.27;96008.28;10409155;28;1878;-81
2020/12/16 18:02:03;;;;;;;;;;;3.30;99.90;;;2.11;93.09;95992.06;10420492;28;1864;-82
2020/12/16 18:07:07;;;;;;;;;;;3.20;99.90;;;2.10;92.97;95992.25;10410152;28;1894;-84
2020/12/16 18:12:15;;;;;;;;;;;4.70;99.90;;;2.01;93.29;96002.31;10410481;28;1937;-83
2020/12/16 18:23:29;;;;;;;;;;;3.10;99.90;;;1.78;94.47;95992.28;10417814;28;1969;-82
2020/12/16 18:28:43;;;;;;;;;;;2.90;99.90;;;1.72;95.22;95992.28;10404609;28;1952;-83
2020/12/16 18:33:47;;;;;;;;;;;2.80;99.90;;;1.60;95.13;95990.34;10405037;28;1845;-83
2020/12/16 18:38:55;;;;;;;;;;;3.80;99.90;;;1.60;95.25;95989.53;10404505;28;1902;-83
2020/12/16 18:49:31;;;;;;;;;;;2.60;99.90;;;1.33;95.36;95992.28;10403792;28;1974;-83
2020/12/16 18:54:35;;;;;;;;;;;2.40;99.90;;;1.22;96.19;95995.59;10416273;28;1627;-83
2020/12/16 18:59:41;;;;;;;;;;;4.00;99.90;;;1.25;96.25;96003.09;10417404;28;1866;-84
2020/12/16 19:16:20;;;;;;;;;;;2.20;99.90;;;1.08;96.59;96002.78;10369557;28;1401;-83
2020/12/16 19:21:42;;;;;;;;;;;2.70;99.90;;;1.19;96.48;96016.38;10410886;28;1905;-80
2020/12/16 19:49:38;;;;;;;;;;;4.10;99.90;;;1.46;95.77;96041.72;10424008;28;1970;-83
2020/12/16 19:55:05;;;;;;;;;;;3.00;99.90;;;1.44;95.04;96033.19;10402294;28;1499;-82
2020/12/16 20:00:07;;;;;;;;;;;2.50;99.90;;;1.56;95.07;96046.59;10417069;28;1865;-81
2020/12/16 20:05:09;;;;;;;;;;;2.60;99.90;;;1.72;94.13;96046.13;10420889;28;2022;-82
2020/12/16 20:10:10;;;;;;;;;;;3.40;99.90;;;1.66;93.29;96046.16;10411335;28;1894;-83
2020/12/16 20:15:13;;;;;;;;;;;2.80;99.90;;;1.67;93.55;96037.19;10410502;28;1216;-81
2020/12/16 20:20:15;;;;;;;;;;;3.10;99.90;;;1.77;93.14;96045.47;10396055;28;1610;-81
2020/12/16 20:25:16;;;;;;;;;;;2.80;99.90;;;1.73;93.57;96039.00;10404017;28;1542;-81
2020/12/16 20:30:18;;;;;;;;;;;2.80;99.90;;;1.53;93.71;96041.75;10404770;28;1961;-82
2020/12/16 20:35:20;;;;;;;;;;;4.90;99.90;;;1.46;94.34;96062.94;10436357;28;1705;-81
2020/12/16 20:40:21;;;;;;;;;;;2.60;99.90;;;1.22;94.72;96061.81;10426128;28;1590;-80
2020/12/16 20:45:26;;;;;;;;;;;2.30;99.90;;;1.17;95.12;96060.78;10423018;28;1868;-80
2020/12/16 20:50:27;;;;;;;;;;;2.20;99.90;;;1.27;95.30;96058.50;10386067;28;1914;-80
2020/12/16 20:55:29;;;;;;;;;;;2.40;99.90;;;1.22;95.19;96048.56;10384429;28;1489;-79
2020/12/16 21:00:31;;;;;;;;;;;2.30;99.90;;;1.29;95.54;96072.38;10387474;28;1633;-81
2020/12/16 21:05:32;;;;;;;;;;;2.30;99.90;;;1.34;95.55;96059.31;10381252;28;1522;-81
2020/12/16 21:10:34;;;;;;;;;;;2.40;99.90;;;1.15;95.10;96054.91;10381358;28;1911;-80
2020/12/16 21:15:36;;;;;;;;;;;2.60;99.90;;;1.15;95.57;96060.19;10394612;28;1368;-80
2020/12/16 21:20:38;;;;;;;;;;;3.50;99.90;;;1.20;95.74;96063.00;10383805;28;1527;-81
2020/12/16 21:25:40;;;;;;;;;;;2.20;99.90;;;1.04;95.90;96061.63;10378863;28;1224;-80
2020/12/16 21:30:41;;;;;;;;;;;3.70;99.90;;;1.10;96.24;96057.34;10372980;28;1914;-80
2020/12/16 21:35:43;;;;;;;;;;;2.10;99.90;;;0.91;96.37;96065.13;10386298;28;1561;-81
2020/12/16 21:40:45;;;;;;;;;;;2.10;99.90;;;0.90;96.36;96036.22;10401761;28;1426;-81
2020/12/16 21:45:49;;;;;;;;;;;2.40;99.90;;;0.85;96.57;96043.94;10398245;28;1907;-81
2020/12/16 21:50:51;;;;;;;;;;;2.00;99.90;;;0.96;96.62;96048.63;10387127;28;1989;-80
2020/12/16 21:55:53;;;;;;;;;;;2.00;99.90;;;0.81;96.60;96046.19;10393742;28;1850;-79
2020/12/16 22:00:55;;;;;;;;;;;1.90;99.90;;;0.78;96.80;96044.78;10386915;28;1889;-79
2020/12/16 22:05:57;;;;;;;;;;;1.80;99.90;;;0.67;96.74;96066.56;10367863;28;1722;-78
2020/12/16 22:10:59;;;;;;;;;;;2.40;99.90;;;0.99;97.09;96072.03;10376602;28;2009;-80
2020/12/16 22:16:01;;;;;;;;;;;3.20;99.90;;;0.97;96.52;96061.66;10377755;28;2038;-79
2020/12/16 22:21:02;;;;;;;;;;;3.20;99.90;;;0.90;96.18;96063.50;10373909;28;2096;-79
2020/12/16 22:26:04;;;;;;;;;;;2.50;99.90;;;0.85;96.53;96055.34;10379674;28;1697;-77
2020/12/16 22:31:06;;;;;;;;;;;1.90;99.90;;;0.75;96.37;96052.28;10381403;28;1954;-79
2020/12/16 22:36:08;;;;;;;;;;;1.80;99.90;;;0.82;96.50;96061.84;10383877;28;1686;-78
2020/12/16 22:41:09;;;;;;;;;;;1.80;99.90;;;0.73;96.29;96057.81;10378489;28;1935;-79
2020/12/16 22:46:11;;;;;;;;;;;1.80;99.90;;;0.67;96.38;96065.75;10377697;28;1909;-80
2020/12/16 22:51:13;;;;;;;;;;;1.80;99.90;;;0.85;96.34;96060.66;10386535;28;2045;-78
2020/12/16 22:56:14;;;;;;;;;;;3.20;99.90;;;1.05;96.10;96071.19;10370399;28;1739;-79
2020/12/16 23:01:17;;;;;;;;;;;2.10;99.90;;;1.18;95.76;96080.94;10402181;28;1931;-79
2020/12/16 23:06:19;;;;;;;;;;;2.30;99.90;;;1.27;95.05;96071.75;10391412;28;1867;-81
2020/12/16 23:11:21;;;;;;;;;;;2.30;99.90;;;0.97;94.24;96074.06;10416800;28;1895;-80
2020/12/16 23:16:22;;;;;;;;;;;2.20;99.90;;;0.89;95.01;96083.03;10418174;28;1598;-80
2020/12/16 23:21:24;;;;;;;;;;;2.00;99.90;;;1.03;94.76;96087.28;10401829;28;1790;-78
2020/12/16 23:26:26;;;;;;;;;;;2.10;99.90;;;1.05;94.21;96085.25;10392045;28;1963;-79
2020/12/16 23:31:28;;;;;;;;;;;3.30;99.90;;;0.98;95.04;96087.09;10385775;28;1903;-78
2020/12/16 23:36:29;;;;;;;;;;;2.00;99.90;;;0.91;94.60;96099.53;10378039;28;2194;-77
2020/12/16 23:41:31;;;;;;;;;;;2.00;99.90;;;0.93;95.15;96094.00;10376728;28;1915;-79
2020/12/16 23:46:33;;;;;;;;;;;2.10;99.90;;;1.01;94.86;96094.59;10378354;28;1842;-79
2020/12/16 23:51:34;;;;;;;;;;;2.10;99.90;;;1.07;94.01;96099.09;10381361;28;2003;-81
2020/12/16 23:56:36;;;;;;;;;;;2.20;99.90;;;0.94;93.64;96096.44;10383125;28;1646;-80
